N160B YSSY-NZAA
Flight info
| Callsign | N160B |
|---|---|
| Flight time | 2h 27m |
| Altitude | 45000 |
| Route | EVONN L521 LUNBI |
| Aircraft | C750/M-SBDE3FGHRWXY/S |
Departure
| Time | 2026-04-21 05:09 |
|---|---|
| Airport | Sydney Kingsford Smith International Airport (YSSY) |
Arrival
| Time | 2026-04-21 07:36 |
|---|---|
| Airport | Auckland International Airport (NZAA) |
| Time | Latitude | Longitude | Altitude | Speed | Heading |
|---|---|---|---|---|---|
| 2026-04-21 04:41 | -33.93451 | 151.18831 | 27 ft | 0 kts | 191° |
| 2026-04-21 04:58 | -33.93452 | 151.18831 | 27 ft | 1 kts | 191° |
| 2026-04-21 04:59 | -33.93480 | 151.18849 | 26 ft | 7 kts | 145° |
| 2026-04-21 04:59 | -33.93542 | 151.18845 | 26 ft | 10 kts | 189° |
| 2026-04-21 04:59 | -33.93595 | 151.18814 | 26 ft | 8 kts | 250° |
| 2026-04-21 04:59 | -33.93613 | 151.18736 | 26 ft | 11 kts | 254° |
| 2026-04-21 05:00 | -33.93637 | 151.18635 | 26 ft | 14 kts | 254° |
| 2026-04-21 05:00 | -33.93667 | 151.18509 | 26 ft | 17 kts | 254° |
| 2026-04-21 05:00 | -33.93743 | 151.18192 | 27 ft | 22 kts | 253° |
| 2026-04-21 05:01 | -33.93789 | 151.18003 | 27 ft | 24 kts | 253° |
| 2026-04-21 05:01 | -33.93830 | 151.17817 | 26 ft | 15 kts | 253° |
| 2026-04-21 05:01 | -33.93790 | 151.17768 | 26 ft | 9 kts | 17° |
| 2026-04-21 05:01 | -33.93772 | 151.17774 | 26 ft | 3 kts | 12° |
| 2026-04-21 05:02 | -33.93738 | 151.17748 | 26 ft | 10 kts | 304° |
| 2026-04-21 05:02 | -33.93734 | 151.17685 | 26 ft | 8 kts | 189° |
| 2026-04-21 05:02 | -33.93800 | 151.17700 | 27 ft | 12 kts | 168° |
| 2026-04-21 05:02 | -33.93866 | 151.17764 | 26 ft | 14 kts | 142° |
| 2026-04-21 05:03 | -33.93965 | 151.17796 | 25 ft | 17 kts | 167° |
| 2026-04-21 05:03 | -33.94093 | 151.17829 | 25 ft | 21 kts | 168° |
| 2026-04-21 05:03 | -33.94244 | 151.17868 | 26 ft | 24 kts | 168° |
| 2026-04-21 05:03 | -33.94414 | 151.17911 | 26 ft | 25 kts | 169° |
| 2026-04-21 05:04 | -33.94558 | 151.17890 | 26 ft | 19 kts | 167° |
| 2026-04-21 05:04 | -33.94681 | 151.17923 | 26 ft | 17 kts | 168° |
| 2026-04-21 05:04 | -33.94800 | 151.17953 | 26 ft | 20 kts | 168° |
| 2026-04-21 05:04 | -33.94949 | 151.17992 | 27 ft | 24 kts | 168° |
| 2026-04-21 05:05 | -33.95097 | 151.18025 | 27 ft | 16 kts | 195° |
| 2026-04-21 05:05 | -33.95131 | 151.17929 | 27 ft | 12 kts | 257° |
| 2026-04-21 05:05 | -33.95135 | 151.17908 | 27 ft | 0 kts | 257° |
| 2026-04-21 05:05 | -33.95137 | 151.17907 | 27 ft | 1 kts | 227° |
| 2026-04-21 05:06 | -33.95141 | 151.17914 | 27 ft | 1 kts | 99° |
| 2026-04-21 05:06 | -33.95124 | 151.17971 | 27 ft | 15 kts | 79° |
| 2026-04-21 05:06 | -33.95090 | 151.18160 | 27 ft | 29 kts | 78° |
| 2026-04-21 05:06 | -33.95050 | 151.18386 | 27 ft | 26 kts | 78° |
| 2026-04-21 05:07 | -33.95012 | 151.18590 | 26 ft | 24 kts | 77° |
| 2026-04-21 05:07 | -33.94988 | 151.18720 | 27 ft | 0 kts | 77° |
| 2026-04-21 05:07 | -33.94988 | 151.18723 | 26 ft | 0 kts | 78° |
| 2026-04-21 05:08 | -33.94984 | 151.18746 | 23 ft | 6 kts | 78° |
| 2026-04-21 05:08 | -33.94997 | 151.18822 | 22 ft | 13 kts | 126° |
| 2026-04-21 05:08 | -33.95104 | 151.18866 | 21 ft | 31 kts | 167° |
| 2026-04-21 05:09 | -33.95657 | 151.19008 | 24 ft | 123 kts | 168° |
| 2026-04-21 05:09 | -33.96535 | 151.19227 | 509 ft | 137 kts | 168° |
| 2026-04-21 05:09 | -33.97516 | 151.19480 | 1107 ft | 150 kts | 165° |
| 2026-04-21 05:09 | -33.98430 | 151.20155 | 1817 ft | 161 kts | 139° |
| 2026-04-21 05:10 | -33.99110 | 151.21286 | 2540 ft | 178 kts | 126° |
| 2026-04-21 05:10 | -33.99779 | 151.22648 | 3256 ft | 195 kts | 125° |
| 2026-04-21 05:10 | -34.00504 | 151.24070 | 4165 ft | 201 kts | 127° |
| 2026-04-21 05:10 | -34.01480 | 151.25266 | 5124 ft | 200 kts | 146° |
| 2026-04-21 05:11 | -34.02589 | 151.26282 | 6131 ft | 200 kts | 144° |
| 2026-04-21 05:11 | -34.03668 | 151.27342 | 7128 ft | 200 kts | 144° |
| 2026-04-21 05:11 | -34.04754 | 151.28415 | 8095 ft | 203 kts | 143° |
| 2026-04-21 05:11 | -34.05621 | 151.29766 | 8962 ft | 216 kts | 117° |
| 2026-04-21 05:12 | -34.06083 | 151.31494 | 9976 ft | 215 kts | 111° |
| 2026-04-21 05:12 | -34.06551 | 151.33187 | 10923 ft | 211 kts | 113° |
| 2026-04-21 05:12 | -34.07022 | 151.34853 | 11784 ft | 209 kts | 113° |
| 2026-04-21 05:12 | -34.07484 | 151.36507 | 12590 ft | 212 kts | 113° |
| 2026-04-21 05:13 | -34.07982 | 151.38263 | 13056 ft | 229 kts | 114° |
| 2026-04-21 05:13 | -34.08505 | 151.40094 | 13845 ft | 231 kts | 114° |
| 2026-04-21 05:13 | -34.09019 | 151.41924 | 14555 ft | 236 kts | 113° |
| 2026-04-21 05:13 | -34.09545 | 151.43918 | 14760 ft | 263 kts | 112° |
| 2026-04-21 05:14 | -34.10144 | 151.46117 | 14900 ft | 289 kts | 112° |
| 2026-04-21 05:14 | -34.10814 | 151.48520 | 15003 ft | 316 kts | 112° |
| 2026-04-21 05:14 | -34.11542 | 151.51145 | 15044 ft | 342 kts | 112° |
| 2026-04-21 05:14 | -34.12315 | 151.53958 | 15081 ft | 365 kts | 111° |
| 2026-04-21 05:15 | -34.13121 | 151.56904 | 15596 ft | 370 kts | 111° |
| 2026-04-21 05:15 | -34.13921 | 151.59816 | 16245 ft | 372 kts | 111° |
| 2026-04-21 05:15 | -34.14744 | 151.62798 | 16844 ft | 376 kts | 111° |
| 2026-04-21 05:15 | -34.15573 | 151.65811 | 17512 ft | 380 kts | 111° |
| 2026-04-21 05:16 | -34.16406 | 151.68851 | 18166 ft | 384 kts | 111° |
| 2026-04-21 05:16 | -34.17248 | 151.71926 | 18795 ft | 388 kts | 111° |
| 2026-04-21 05:16 | -34.18098 | 151.75030 | 19408 ft | 391 kts | 111° |
| 2026-04-21 05:16 | -34.18954 | 151.78156 | 20024 ft | 394 kts | 111° |
| 2026-04-21 05:17 | -34.19818 | 151.81320 | 20654 ft | 397 kts | 112° |
| 2026-04-21 05:17 | -34.20687 | 151.84504 | 21280 ft | 401 kts | 112° |
| 2026-04-21 05:17 | -34.21566 | 151.87728 | 21906 ft | 404 kts | 112° |
| 2026-04-21 05:17 | -34.22448 | 151.90969 | 22521 ft | 408 kts | 112° |
| 2026-04-21 05:18 | -34.23337 | 151.94238 | 23160 ft | 411 kts | 113° |
| 2026-04-21 05:18 | -34.24231 | 151.97529 | 23791 ft | 414 kts | 113° |
| 2026-04-21 05:18 | -34.25133 | 152.00852 | 24289 ft | 418 kts | 113° |
| 2026-04-21 05:18 | -34.26041 | 152.04205 | 24778 ft | 421 kts | 113° |
| 2026-04-21 05:19 | -34.26945 | 152.07541 | 25248 ft | 425 kts | 113° |
| 2026-04-21 05:19 | -34.27868 | 152.10957 | 25725 ft | 429 kts | 113° |
| 2026-04-21 05:19 | -34.28796 | 152.14394 | 26197 ft | 432 kts | 113° |
| 2026-04-21 05:19 | -34.29747 | 152.17868 | 26659 ft | 435 kts | 114° |
| 2026-04-21 05:20 | -34.30757 | 152.21329 | 27122 ft | 439 kts | 114° |
| 2026-04-21 05:20 | -34.31732 | 152.24852 | 27588 ft | 443 kts | 112° |
| 2026-04-21 05:20 | -34.32627 | 152.28366 | 28032 ft | 436 kts | 112° |
| 2026-04-21 05:20 | -34.33550 | 152.31886 | 28475 ft | 440 kts | 113° |
| 2026-04-21 05:21 | -34.34506 | 152.35360 | 28929 ft | 443 kts | 113° |
| 2026-04-21 05:21 | -34.35473 | 152.38917 | 29402 ft | 447 kts | 112° |
| 2026-04-21 05:21 | -34.36420 | 152.42519 | 29884 ft | 451 kts | 112° |
| 2026-04-21 05:21 | -34.37375 | 152.46146 | 30369 ft | 453 kts | 112° |
| 2026-04-21 05:22 | -34.38351 | 152.49787 | 30794 ft | 456 kts | 113° |
| 2026-04-21 05:22 | -34.39332 | 152.53449 | 31242 ft | 457 kts | 113° |
| 2026-04-21 05:22 | -34.40303 | 152.57118 | 31668 ft | 458 kts | 113° |
| 2026-04-21 05:22 | -34.41276 | 152.60805 | 32107 ft | 460 kts | 113° |
| 2026-04-21 05:23 | -34.42258 | 152.64509 | 32554 ft | 462 kts | 113° |
| 2026-04-21 05:23 | -34.43242 | 152.68222 | 32993 ft | 464 kts | 113° |
| 2026-04-21 05:23 | -34.44222 | 152.71939 | 33436 ft | 463 kts | 113° |
| 2026-04-21 05:23 | -34.45202 | 152.75664 | 33877 ft | 463 kts | 113° |
| 2026-04-21 05:24 | -34.46183 | 152.79384 | 34309 ft | 462 kts | 113° |
| 2026-04-21 05:24 | -34.47146 | 152.83045 | 34689 ft | 462 kts | 113° |
| 2026-04-21 05:24 | -34.48131 | 152.86799 | 35056 ft | 461 kts | 113° |
| 2026-04-21 05:24 | -34.49090 | 152.90456 | 35408 ft | 462 kts | 113° |
| 2026-04-21 05:25 | -34.50061 | 152.94165 | 35762 ft | 461 kts | 113° |
| 2026-04-21 05:25 | -34.51035 | 152.97889 | 36113 ft | 461 kts | 113° |
| 2026-04-21 05:25 | -34.52004 | 153.01601 | 36460 ft | 461 kts | 113° |
| 2026-04-21 05:25 | -34.52972 | 153.05312 | 36803 ft | 461 kts | 113° |
| 2026-04-21 05:26 | -34.53938 | 153.09023 | 37142 ft | 461 kts | 113° |
| 2026-04-21 05:26 | -34.54903 | 153.12734 | 37475 ft | 461 kts | 113° |
| 2026-04-21 05:26 | -34.55866 | 153.16441 | 37828 ft | 461 kts | 113° |
| 2026-04-21 05:26 | -34.56828 | 153.20152 | 38147 ft | 461 kts | 113° |
| 2026-04-21 05:27 | -34.57792 | 153.23874 | 38470 ft | 461 kts | 113° |
| 2026-04-21 05:27 | -34.58751 | 153.27584 | 38781 ft | 461 kts | 113° |
| 2026-04-21 05:27 | -34.59698 | 153.31253 | 39048 ft | 461 kts | 113° |
| 2026-04-21 05:27 | -34.60655 | 153.34965 | 39285 ft | 461 kts | 113° |
| 2026-04-21 05:28 | -34.61613 | 153.38683 | 39516 ft | 461 kts | 113° |
| 2026-04-21 05:28 | -34.62572 | 153.42414 | 39747 ft | 462 kts | 113° |
| 2026-04-21 05:28 | -34.63529 | 153.46141 | 39998 ft | 461 kts | 113° |
| 2026-04-21 05:28 | -34.64484 | 153.49867 | 40216 ft | 461 kts | 113° |
| 2026-04-21 05:29 | -34.65437 | 153.53586 | 40434 ft | 462 kts | 113° |
| 2026-04-21 05:29 | -34.66391 | 153.57317 | 40648 ft | 462 kts | 113° |
| 2026-04-21 05:29 | -34.67342 | 153.61045 | 40857 ft | 462 kts | 112° |
| 2026-04-21 05:29 | -34.68292 | 153.64770 | 41056 ft | 462 kts | 112° |
| 2026-04-21 05:30 | -34.69232 | 153.68463 | 41256 ft | 462 kts | 112° |
| 2026-04-21 05:30 | -34.70182 | 153.72201 | 41451 ft | 462 kts | 112° |
| 2026-04-21 05:30 | -34.71133 | 153.75945 | 41650 ft | 462 kts | 112° |
| 2026-04-21 05:30 | -34.72081 | 153.79686 | 41840 ft | 462 kts | 112° |
| 2026-04-21 05:31 | -34.73026 | 153.83419 | 42022 ft | 463 kts | 112° |
| 2026-04-21 05:31 | -34.73972 | 153.87159 | 42195 ft | 463 kts | 112° |
| 2026-04-21 05:31 | -34.74916 | 153.90901 | 42365 ft | 463 kts | 112° |
| 2026-04-21 05:31 | -34.75858 | 153.94640 | 42530 ft | 463 kts | 112° |
| 2026-04-21 05:32 | -34.76802 | 153.98391 | 42692 ft | 463 kts | 112° |
| 2026-04-21 05:32 | -34.77732 | 154.02089 | 42843 ft | 463 kts | 112° |
| 2026-04-21 05:32 | -34.78675 | 154.05848 | 43024 ft | 463 kts | 112° |
| 2026-04-21 05:32 | -34.79613 | 154.09592 | 43170 ft | 463 kts | 112° |
| 2026-04-21 05:33 | -34.80552 | 154.13342 | 43306 ft | 463 kts | 112° |
| 2026-04-21 05:33 | -34.81493 | 154.17108 | 43446 ft | 463 kts | 112° |
| 2026-04-21 05:33 | -34.82427 | 154.20855 | 43578 ft | 463 kts | 112° |
| 2026-04-21 05:33 | -34.83367 | 154.24622 | 43712 ft | 467 kts | 112° |
| 2026-04-21 05:34 | -34.84315 | 154.28426 | 43870 ft | 472 kts | 112° |
| 2026-04-21 05:34 | -34.85271 | 154.32279 | 44044 ft | 477 kts | 112° |
| 2026-04-21 05:34 | -34.86219 | 154.36118 | 44786 ft | 466 kts | 112° |
| 2026-04-21 05:34 | -34.87142 | 154.39866 | 45275 ft | 462 kts | 112° |
| 2026-04-21 05:35 | -34.89040 | 154.47481 | 45261 ft | 477 kts | 112° |
| 2026-04-21 05:35 | -34.90957 | 154.55301 | 45275 ft | 491 kts | 111° |
| 2026-04-21 05:36 | -34.92948 | 154.63386 | 45275 ft | 504 kts | 111° |
| 2026-04-21 05:36 | -34.94979 | 154.71697 | 45274 ft | 517 kts | 111° |
| 2026-04-21 05:37 | -34.97029 | 154.80119 | 45257 ft | 502 kts | 111° |
| 2026-04-21 05:37 | -34.97988 | 154.84086 | 45246 ft | 487 kts | 111° |
| 2026-04-21 05:37 | -34.98960 | 154.88049 | 45246 ft | 490 kts | 111° |
| 2026-04-21 05:38 | -35.00920 | 154.96107 | 45256 ft | 499 kts | 111° |
| 2026-04-21 05:38 | -35.02970 | 155.04184 | 45255 ft | 497 kts | 113° |
| 2026-04-21 05:39 | -35.05070 | 155.12280 | 45261 ft | 503 kts | 112° |
| 2026-04-21 05:39 | -35.07229 | 155.20521 | 45265 ft | 515 kts | 112° |
| 2026-04-21 05:40 | -35.09042 | 155.27502 | 45257 ft | 522 kts | 112° |
| 2026-04-21 05:40 | -35.11591 | 155.37344 | 45255 ft | 523 kts | 112° |
| 2026-04-21 05:41 | -35.13784 | 155.45832 | 45254 ft | 524 kts | 112° |
| 2026-04-21 05:41 | -35.15601 | 155.52892 | 45251 ft | 524 kts | 112° |
| 2026-04-21 05:42 | -35.17785 | 155.61392 | 45270 ft | 524 kts | 112° |
| 2026-04-21 05:42 | -35.19956 | 155.69880 | 45240 ft | 523 kts | 112° |
| 2026-04-21 05:43 | -35.22125 | 155.78379 | 45242 ft | 523 kts | 112° |
| 2026-04-21 05:43 | -35.24285 | 155.86874 | 45237 ft | 523 kts | 112° |
| 2026-04-21 05:44 | -35.26441 | 155.95380 | 45242 ft | 523 kts | 112° |
| 2026-04-21 05:44 | -35.28590 | 156.03888 | 45240 ft | 523 kts | 112° |
| 2026-04-21 05:45 | -35.30733 | 156.12401 | 45228 ft | 523 kts | 112° |
| 2026-04-21 05:45 | -35.32857 | 156.20862 | 45234 ft | 523 kts | 112° |
| 2026-04-21 05:46 | -35.34988 | 156.29383 | 45227 ft | 522 kts | 111° |
| 2026-04-21 05:46 | -35.37110 | 156.37894 | 45224 ft | 522 kts | 111° |
| 2026-04-21 05:47 | -35.39225 | 156.46409 | 45228 ft | 522 kts | 111° |
| 2026-04-21 05:47 | -35.41337 | 156.54938 | 45225 ft | 522 kts | 111° |
| 2026-04-21 05:48 | -35.43443 | 156.63472 | 45220 ft | 522 kts | 111° |
| 2026-04-21 05:48 | -35.45532 | 156.71967 | 45217 ft | 522 kts | 111° |
| 2026-04-21 05:49 | -35.47627 | 156.80512 | 45213 ft | 523 kts | 111° |
| 2026-04-21 05:49 | -35.49720 | 156.89079 | 45213 ft | 523 kts | 111° |
| 2026-04-21 05:50 | -35.51789 | 156.97578 | 45216 ft | 523 kts | 111° |
| 2026-04-21 05:50 | -35.53865 | 157.06136 | 45214 ft | 523 kts | 111° |
| 2026-04-21 05:51 | -35.55934 | 157.14691 | 45212 ft | 523 kts | 111° |
| 2026-04-21 05:51 | -35.57998 | 157.23257 | 45219 ft | 523 kts | 111° |
| 2026-04-21 05:52 | -35.60055 | 157.31824 | 45192 ft | 522 kts | 111° |
| 2026-04-21 05:52 | -35.62105 | 157.40389 | 45198 ft | 522 kts | 111° |
| 2026-04-21 05:53 | -35.64148 | 157.48957 | 45193 ft | 522 kts | 111° |
| 2026-04-21 05:53 | -35.66186 | 157.57532 | 45195 ft | 522 kts | 111° |
| 2026-04-21 05:54 | -35.68216 | 157.66105 | 45197 ft | 522 kts | 111° |
| 2026-04-21 05:54 | -35.70227 | 157.74625 | 45194 ft | 522 kts | 111° |
| 2026-04-21 05:55 | -35.72246 | 157.83214 | 45182 ft | 522 kts | 111° |
| 2026-04-21 05:55 | -35.74263 | 157.91786 | 45182 ft | 520 kts | 111° |
| 2026-04-21 05:56 | -35.76258 | 158.00354 | 45180 ft | 521 kts | 110° |
| 2026-04-21 05:56 | -35.78220 | 158.08948 | 45165 ft | 523 kts | 108° |
| 2026-04-21 05:57 | -35.79720 | 158.17722 | 45181 ft | 524 kts | 106° |
| 2026-04-21 05:57 | -35.81229 | 158.26493 | 45177 ft | 521 kts | 107° |
| 2026-04-21 05:58 | -35.82732 | 158.35250 | 45175 ft | 522 kts | 106° |
| 2026-04-21 05:58 | -35.84205 | 158.43960 | 45171 ft | 522 kts | 106° |
| 2026-04-21 05:59 | -35.85696 | 158.52719 | 45160 ft | 522 kts | 106° |
| 2026-04-21 06:00 | -35.87914 | 158.65898 | 45160 ft | 522 kts | 106° |
| 2026-04-21 06:00 | -35.89384 | 158.74684 | 45158 ft | 523 kts | 106° |
| 2026-04-21 06:01 | -35.90838 | 158.83406 | 45159 ft | 522 kts | 106° |
| 2026-04-21 06:01 | -35.92295 | 158.92193 | 45156 ft | 522 kts | 106° |
| 2026-04-21 06:02 | -35.93739 | 159.00937 | 45156 ft | 522 kts | 106° |
| 2026-04-21 06:02 | -35.95181 | 159.09721 | 45157 ft | 522 kts | 105° |
| 2026-04-21 06:03 | -35.96620 | 159.18519 | 45152 ft | 522 kts | 105° |
| 2026-04-21 06:03 | -35.98051 | 159.27316 | 45147 ft | 522 kts | 105° |
| 2026-04-21 06:04 | -35.99475 | 159.36108 | 45144 ft | 522 kts | 105° |
| 2026-04-21 06:04 | -36.00884 | 159.44861 | 45142 ft | 522 kts | 105° |
| 2026-04-21 06:05 | -36.02295 | 159.53656 | 45163 ft | 522 kts | 105° |
| 2026-04-21 06:05 | -36.03700 | 159.62467 | 45138 ft | 522 kts | 105° |
| 2026-04-21 06:06 | -36.05100 | 159.71280 | 45130 ft | 522 kts | 105° |
| 2026-04-21 06:06 | -36.06494 | 159.80109 | 45131 ft | 522 kts | 105° |
| 2026-04-21 06:07 | -36.07872 | 159.88877 | 45127 ft | 524 kts | 105° |
| 2026-04-21 06:07 | -36.09255 | 159.97722 | 45122 ft | 523 kts | 104° |
| 2026-04-21 06:08 | -36.10632 | 160.06569 | 45120 ft | 524 kts | 104° |
| 2026-04-21 06:08 | -36.12001 | 160.15411 | 45115 ft | 524 kts | 104° |
| 2026-04-21 06:09 | -36.13364 | 160.24261 | 45116 ft | 524 kts | 104° |
| 2026-04-21 06:09 | -36.14722 | 160.33124 | 45120 ft | 524 kts | 104° |
| 2026-04-21 06:10 | -36.16064 | 160.41925 | 45112 ft | 524 kts | 104° |
| 2026-04-21 06:10 | -36.17410 | 160.50802 | 45106 ft | 524 kts | 104° |
| 2026-04-21 06:11 | -36.18750 | 160.59678 | 45106 ft | 525 kts | 104° |
| 2026-04-21 06:11 | -36.20086 | 160.68588 | 45101 ft | 525 kts | 104° |
| 2026-04-21 06:12 | -36.21406 | 160.77425 | 45096 ft | 525 kts | 104° |
| 2026-04-21 06:12 | -36.22728 | 160.86328 | 45096 ft | 525 kts | 104° |
| 2026-04-21 06:13 | -36.24043 | 160.95235 | 45090 ft | 525 kts | 104° |
| 2026-04-21 06:13 | -36.25352 | 161.04143 | 45085 ft | 525 kts | 104° |
| 2026-04-21 06:14 | -36.26653 | 161.13045 | 45086 ft | 525 kts | 103° |
| 2026-04-21 06:14 | -36.27947 | 161.21951 | 45081 ft | 525 kts | 103° |
| 2026-04-21 06:15 | -36.29228 | 161.30814 | 45076 ft | 525 kts | 103° |
| 2026-04-21 06:15 | -36.30510 | 161.39726 | 45077 ft | 525 kts | 103° |
| 2026-04-21 06:16 | -36.31784 | 161.48641 | 45069 ft | 525 kts | 103° |
| 2026-04-21 06:16 | -36.33053 | 161.57562 | 45087 ft | 525 kts | 103° |
| 2026-04-21 06:17 | -36.34313 | 161.66473 | 45068 ft | 525 kts | 103° |
| 2026-04-21 06:17 | -36.35567 | 161.75393 | 45066 ft | 525 kts | 103° |
| 2026-04-21 06:18 | -36.36815 | 161.84317 | 45062 ft | 525 kts | 103° |
| 2026-04-21 06:18 | -36.38047 | 161.93181 | 45061 ft | 525 kts | 103° |
| 2026-04-21 06:19 | -36.39281 | 162.02104 | 45063 ft | 525 kts | 103° |
| 2026-04-21 06:19 | -36.40510 | 162.11049 | 45062 ft | 525 kts | 103° |
| 2026-04-21 06:20 | -36.41731 | 162.19979 | 45056 ft | 525 kts | 102° |
| 2026-04-21 06:20 | -36.42949 | 162.28946 | 45046 ft | 526 kts | 102° |
| 2026-04-21 06:21 | -36.44151 | 162.37839 | 45053 ft | 525 kts | 102° |
| 2026-04-21 06:21 | -36.45353 | 162.46787 | 45049 ft | 525 kts | 102° |
| 2026-04-21 06:22 | -36.46550 | 162.55754 | 45037 ft | 526 kts | 102° |
| 2026-04-21 06:22 | -36.47742 | 162.64734 | 45040 ft | 527 kts | 102° |
| 2026-04-21 06:23 | -36.48927 | 162.73721 | 45041 ft | 527 kts | 102° |
| 2026-04-21 06:23 | -36.50100 | 162.82658 | 45036 ft | 527 kts | 102° |
| 2026-04-21 06:24 | -36.51273 | 162.91664 | 45039 ft | 527 kts | 102° |
| 2026-04-21 06:24 | -36.52444 | 163.00692 | 45031 ft | 527 kts | 101° |
| 2026-04-21 06:25 | -36.53600 | 163.09695 | 45028 ft | 528 kts | 101° |
| 2026-04-21 06:25 | -36.54746 | 163.18655 | 45029 ft | 528 kts | 101° |
| 2026-04-21 06:26 | -36.55891 | 163.27677 | 45023 ft | 527 kts | 101° |
| 2026-04-21 06:26 | -36.57031 | 163.36706 | 45023 ft | 529 kts | 101° |
| 2026-04-21 06:27 | -36.58166 | 163.45768 | 45019 ft | 529 kts | 101° |
| 2026-04-21 06:27 | -36.59294 | 163.54819 | 45016 ft | 529 kts | 101° |
| 2026-04-21 06:28 | -36.60227 | 163.62347 | 45017 ft | 529 kts | 101° |
| 2026-04-21 06:28 | -36.61525 | 163.72898 | 45015 ft | 530 kts | 100° |
| 2026-04-21 06:29 | -36.62635 | 163.81980 | 45012 ft | 530 kts | 100° |
| 2026-04-21 06:29 | -36.63553 | 163.89534 | 45012 ft | 530 kts | 100° |
| 2026-04-21 06:30 | -36.64651 | 163.98623 | 45010 ft | 530 kts | 100° |
| 2026-04-21 06:30 | -36.65742 | 164.07721 | 45011 ft | 531 kts | 100° |
| 2026-04-21 06:31 | -36.66828 | 164.16834 | 45008 ft | 531 kts | 100° |
| 2026-04-21 06:31 | -36.67907 | 164.25942 | 45003 ft | 531 kts | 100° |
| 2026-04-21 06:32 | -36.68972 | 164.35003 | 45006 ft | 531 kts | 99° |
| 2026-04-21 06:32 | -36.70039 | 164.44137 | 45002 ft | 533 kts | 99° |
| 2026-04-21 06:33 | -36.71098 | 164.53276 | 45003 ft | 533 kts | 99° |
| 2026-04-21 06:33 | -36.72156 | 164.62448 | 45004 ft | 533 kts | 99° |
| 2026-04-21 06:34 | -36.73201 | 164.71590 | 45010 ft | 534 kts | 99° |
| 2026-04-21 06:34 | -36.74243 | 164.80760 | 45004 ft | 533 kts | 99° |
| 2026-04-21 06:35 | -36.75272 | 164.89875 | 45008 ft | 534 kts | 99° |
| 2026-04-21 06:35 | -36.76299 | 164.99049 | 45002 ft | 534 kts | 99° |
| 2026-04-21 06:36 | -36.77320 | 165.08226 | 45004 ft | 533 kts | 99° |
| 2026-04-21 06:36 | -36.78337 | 165.17435 | 44993 ft | 536 kts | 99° |
| 2026-04-21 06:37 | -36.79346 | 165.26639 | 44993 ft | 535 kts | 99° |
| 2026-04-21 06:37 | -36.80342 | 165.35793 | 44984 ft | 536 kts | 98° |
| 2026-04-21 06:38 | -36.81337 | 165.45011 | 44981 ft | 536 kts | 99° |
| 2026-04-21 06:38 | -36.82325 | 165.54220 | 44981 ft | 535 kts | 98° |
| 2026-04-21 06:39 | -36.83306 | 165.63439 | 44985 ft | 536 kts | 98° |
| 2026-04-21 06:39 | -36.84280 | 165.72659 | 44982 ft | 536 kts | 98° |
| 2026-04-21 06:40 | -36.85249 | 165.81899 | 44989 ft | 536 kts | 98° |
| 2026-04-21 06:40 | -36.86213 | 165.91165 | 44990 ft | 537 kts | 98° |
| 2026-04-21 06:41 | -36.87161 | 166.00357 | 44990 ft | 537 kts | 98° |
| 2026-04-21 06:41 | -36.88109 | 166.09608 | 44991 ft | 536 kts | 98° |
| 2026-04-21 06:42 | -36.89053 | 166.18901 | 44994 ft | 538 kts | 98° |
| 2026-04-21 06:42 | -36.89988 | 166.28174 | 44991 ft | 538 kts | 98° |
| 2026-04-21 06:43 | -36.90916 | 166.37450 | 44986 ft | 537 kts | 98° |
| 2026-04-21 06:43 | -36.91832 | 166.46678 | 44986 ft | 538 kts | 98° |
| 2026-04-21 06:44 | -36.92746 | 166.55968 | 44985 ft | 539 kts | 97° |
| 2026-04-21 06:44 | -36.93655 | 166.65275 | 44986 ft | 538 kts | 97° |
| 2026-04-21 06:45 | -36.94556 | 166.74580 | 44990 ft | 539 kts | 97° |
| 2026-04-21 06:45 | -36.95448 | 166.83877 | 44987 ft | 539 kts | 97° |
| 2026-04-21 06:46 | -36.96329 | 166.93127 | 44983 ft | 539 kts | 97° |
| 2026-04-21 06:46 | -36.97210 | 167.02463 | 44984 ft | 539 kts | 97° |
| 2026-04-21 06:47 | -36.98083 | 167.11786 | 44980 ft | 540 kts | 97° |
| 2026-04-21 06:47 | -36.98943 | 167.21054 | 44980 ft | 539 kts | 97° |
| 2026-04-21 06:48 | -36.99804 | 167.30408 | 44978 ft | 540 kts | 97° |
| 2026-04-21 06:48 | -37.00656 | 167.39746 | 44979 ft | 540 kts | 97° |
| 2026-04-21 06:49 | -37.01501 | 167.49091 | 44984 ft | 539 kts | 97° |
| 2026-04-21 06:49 | -37.02332 | 167.58376 | 44977 ft | 540 kts | 96° |
| 2026-04-21 06:50 | -37.03162 | 167.67723 | 44980 ft | 540 kts | 96° |
| 2026-04-21 06:50 | -37.03985 | 167.77076 | 44980 ft | 540 kts | 96° |
| 2026-04-21 06:51 | -37.04800 | 167.86424 | 44979 ft | 540 kts | 96° |
| 2026-04-21 06:51 | -37.05610 | 167.95791 | 44975 ft | 541 kts | 96° |
| 2026-04-21 06:52 | -37.06404 | 168.05076 | 44970 ft | 537 kts | 96° |
| 2026-04-21 06:52 | -37.07192 | 168.14356 | 44964 ft | 535 kts | 96° |
| 2026-04-21 06:53 | -37.07970 | 168.23630 | 44966 ft | 535 kts | 96° |
| 2026-04-21 06:53 | -37.08740 | 168.32877 | 44964 ft | 532 kts | 96° |
| 2026-04-21 06:54 | -37.09497 | 168.42070 | 44955 ft | 530 kts | 96° |
| 2026-04-21 06:54 | -37.10249 | 168.51287 | 44954 ft | 531 kts | 96° |
| 2026-04-21 06:55 | -37.10987 | 168.60423 | 44954 ft | 530 kts | 95° |
| 2026-04-21 06:55 | -37.11723 | 168.69611 | 44965 ft | 528 kts | 95° |
| 2026-04-21 06:56 | -37.12450 | 168.78783 | 44963 ft | 528 kts | 95° |
| 2026-04-21 06:56 | -37.13168 | 168.87930 | 44959 ft | 528 kts | 95° |
| 2026-04-21 06:57 | -37.13874 | 168.97015 | 44968 ft | 526 kts | 95° |
| 2026-04-21 06:57 | -37.14576 | 169.06148 | 44967 ft | 527 kts | 95° |
| 2026-04-21 06:58 | -37.15273 | 169.15297 | 44964 ft | 528 kts | 95° |
| 2026-04-21 06:58 | -37.15963 | 169.24460 | 44963 ft | 528 kts | 95° |
| 2026-04-21 06:59 | -37.16635 | 169.33557 | 44962 ft | 527 kts | 95° |
| 2026-04-21 06:59 | -37.17317 | 169.42739 | 44962 ft | 529 kts | 95° |
| 2026-04-21 07:00 | -37.17989 | 169.51913 | 44954 ft | 530 kts | 95° |
| 2026-04-21 07:00 | -37.18650 | 169.61085 | 44956 ft | 526 kts | 94° |
| 2026-04-21 07:01 | -37.19306 | 169.70254 | 44958 ft | 526 kts | 95° |
| 2026-04-21 07:01 | -37.20276 | 169.84019 | 44953 ft | 527 kts | 94° |
| 2026-04-21 07:02 | -37.20914 | 169.93198 | 44947 ft | 530 kts | 94° |
| 2026-04-21 07:02 | -37.21540 | 170.02312 | 44944 ft | 529 kts | 94° |
| 2026-04-21 07:03 | -37.22163 | 170.11493 | 44954 ft | 528 kts | 94° |
| 2026-04-21 07:03 | -37.22781 | 170.20707 | 44946 ft | 529 kts | 94° |
| 2026-04-21 07:04 | -37.23394 | 170.29932 | 44943 ft | 531 kts | 94° |
| 2026-04-21 07:04 | -37.23999 | 170.39150 | 44944 ft | 529 kts | 93° |
| 2026-04-21 07:05 | -37.24595 | 170.48369 | 44944 ft | 529 kts | 93° |
| 2026-04-21 07:05 | -37.25187 | 170.57604 | 44944 ft | 530 kts | 94° |
| 2026-04-21 07:06 | -37.25688 | 170.66848 | 44915 ft | 531 kts | 88° |
| 2026-04-21 07:06 | -37.25409 | 170.76022 | 44934 ft | 529 kts | 85° |
| 2026-04-21 07:07 | -37.25099 | 170.85262 | 44935 ft | 531 kts | 86° |
| 2026-04-21 07:07 | -37.24843 | 170.94509 | 44928 ft | 531 kts | 86° |
| 2026-04-21 07:08 | -37.24568 | 171.03768 | 44927 ft | 532 kts | 85° |
| 2026-04-21 07:08 | -37.24334 | 171.13055 | 44926 ft | 533 kts | 86° |
| 2026-04-21 07:09 | -37.24055 | 171.22343 | 44923 ft | 533 kts | 85° |
| 2026-04-21 07:09 | -37.23710 | 171.31633 | 44916 ft | 534 kts | 85° |
| 2026-04-21 07:10 | -37.23410 | 171.40944 | 44911 ft | 535 kts | 86° |
| 2026-04-21 07:10 | -37.23102 | 171.50261 | 44912 ft | 535 kts | 85° |
| 2026-04-21 07:11 | -37.22782 | 171.59528 | 44906 ft | 535 kts | 85° |
| 2026-04-21 07:11 | -37.22462 | 171.68847 | 44896 ft | 535 kts | 85° |
| 2026-04-21 07:12 | -37.22124 | 171.78179 | 44894 ft | 537 kts | 85° |
| 2026-04-21 07:12 | -37.21786 | 171.87553 | 44895 ft | 538 kts | 85° |
| 2026-04-21 07:13 | -37.21326 | 171.96925 | 44893 ft | 537 kts | 82° |
| 2026-04-21 07:13 | -37.20686 | 172.06278 | 44890 ft | 541 kts | 84° |
| 2026-04-21 07:14 | -37.20332 | 172.15796 | 44898 ft | 550 kts | 86° |
| 2026-04-21 07:14 | -37.20110 | 172.20523 | 44862 ft | 531 kts | 83° |
| 2026-04-21 07:14 | -37.19836 | 172.25013 | 44843 ft | 520 kts | 83° |
| 2026-04-21 07:15 | -37.19477 | 172.34204 | 44831 ft | 534 kts | 86° |
| 2026-04-21 07:15 | -37.19419 | 172.38879 | 45022 ft | 537 kts | 87° |
| 2026-04-21 07:15 | -37.19425 | 172.43571 | 45359 ft | 535 kts | 88° |
| 2026-04-21 07:16 | -37.19478 | 172.48142 | 45092 ft | 520 kts | 89° |
| 2026-04-21 07:16 | -37.19409 | 172.52674 | 43539 ft | 525 kts | 83° |
| 2026-04-21 07:16 | -37.19026 | 172.57200 | 42803 ft | 515 kts | 80° |
| 2026-04-21 07:16 | -37.18569 | 172.61613 | 42042 ft | 507 kts | 80° |
| 2026-04-21 07:17 | -37.18269 | 172.64502 | 41592 ft | 501 kts | 80° |
| 2026-04-21 07:17 | -37.17832 | 172.68784 | 40676 ft | 494 kts | 80° |
| 2026-04-21 07:17 | -37.17375 | 172.73183 | 39567 ft | 518 kts | 80° |
| 2026-04-21 07:17 | -37.16906 | 172.77657 | 39492 ft | 519 kts | 80° |
| 2026-04-21 07:18 | -37.16425 | 172.82203 | 38980 ft | 529 kts | 80° |
| 2026-04-21 07:18 | -37.15940 | 172.86765 | 38475 ft | 528 kts | 80° |
| 2026-04-21 07:18 | -37.15451 | 172.91355 | 37854 ft | 530 kts | 81° |
| 2026-04-21 07:18 | -37.14961 | 172.95890 | 36545 ft | 521 kts | 81° |
| 2026-04-21 07:19 | -37.14453 | 173.00409 | 34978 ft | 522 kts | 81° |
| 2026-04-21 07:19 | -37.13908 | 173.04857 | 33609 ft | 513 kts | 81° |
| 2026-04-21 07:19 | -37.13324 | 173.09233 | 31882 ft | 504 kts | 81° |
| 2026-04-21 07:19 | -37.12731 | 173.13536 | 29959 ft | 497 kts | 83° |
| 2026-04-21 07:20 | -37.12493 | 173.17823 | 27426 ft | 492 kts | 91° |
| 2026-04-21 07:20 | -37.12560 | 173.22099 | 24506 ft | 494 kts | 95° |
| 2026-04-21 07:20 | -37.12693 | 173.26419 | 22877 ft | 485 kts | 93° |
| 2026-04-21 07:20 | -37.12675 | 173.30425 | 22277 ft | 446 kts | 92° |
| 2026-04-21 07:21 | -37.12605 | 173.34192 | 21253 ft | 423 kts | 91° |
| 2026-04-21 07:21 | -37.12532 | 173.37871 | 19748 ft | 420 kts | 91° |
| 2026-04-21 07:21 | -37.12358 | 173.41412 | 19210 ft | 394 kts | 88° |
| 2026-04-21 07:21 | -37.12185 | 173.44718 | 18771 ft | 369 kts | 90° |
| 2026-04-21 07:22 | -37.12085 | 173.47917 | 17482 ft | 368 kts | 91° |
| 2026-04-21 07:22 | -37.12017 | 173.51143 | 16244 ft | 370 kts | 90° |
| 2026-04-21 07:22 | -37.11908 | 173.54341 | 15546 ft | 369 kts | 90° |
| 2026-04-21 07:22 | -37.11777 | 173.57614 | 14860 ft | 376 kts | 89° |
| 2026-04-21 07:23 | -37.11658 | 173.60888 | 14191 ft | 376 kts | 90° |
| 2026-04-21 07:23 | -37.11550 | 173.64198 | 13508 ft | 384 kts | 90° |
| 2026-04-21 07:23 | -37.11435 | 173.67522 | 12771 ft | 378 kts | 89° |
| 2026-04-21 07:23 | -37.11315 | 173.70770 | 12053 ft | 376 kts | 89° |
| 2026-04-21 07:24 | -37.11195 | 173.74032 | 11345 ft | 374 kts | 89° |
| 2026-04-21 07:24 | -37.11079 | 173.77280 | 10649 ft | 374 kts | 90° |
| 2026-04-21 07:24 | -37.10960 | 173.80517 | 9969 ft | 370 kts | 91° |
| 2026-04-21 07:24 | -37.10826 | 173.83729 | 9255 ft | 369 kts | 90° |
| 2026-04-21 07:25 | -37.10715 | 173.86662 | 8539 ft | 308 kts | 92° |
| 2026-04-21 07:25 | -37.10625 | 173.89183 | 7821 ft | 276 kts | 95° |
| 2026-04-21 07:25 | -37.10548 | 173.91588 | 7116 ft | 276 kts | 94° |
| 2026-04-21 07:25 | -37.10463 | 173.93900 | 6202 ft | 251 kts | 92° |
| 2026-04-21 07:26 | -37.10375 | 173.96135 | 5375 ft | 260 kts | 94° |
| 2026-04-21 07:26 | -37.10292 | 173.98367 | 4686 ft | 260 kts | 92° |
| 2026-04-21 07:26 | -37.10206 | 174.00607 | 3976 ft | 255 kts | 91° |
| 2026-04-21 07:26 | -37.10118 | 174.02790 | 3284 ft | 244 kts | 94° |
| 2026-04-21 07:27 | -37.10035 | 174.04871 | 2805 ft | 234 kts | 94° |
| 2026-04-21 07:27 | -37.09960 | 174.06888 | 2811 ft | 230 kts | 95° |
| 2026-04-21 07:27 | -37.09886 | 174.08887 | 2815 ft | 231 kts | 94° |
| 2026-04-21 07:27 | -37.09807 | 174.10891 | 2820 ft | 229 kts | 95° |
| 2026-04-21 07:28 | -37.09727 | 174.12878 | 2818 ft | 228 kts | 94° |
| 2026-04-21 07:28 | -37.09650 | 174.14866 | 2821 ft | 227 kts | 94° |
| 2026-04-21 07:28 | -37.09572 | 174.16859 | 2822 ft | 230 kts | 94° |
| 2026-04-21 07:28 | -37.09494 | 174.18890 | 2805 ft | 238 kts | 95° |
| 2026-04-21 07:29 | -37.09408 | 174.20973 | 2802 ft | 244 kts | 94° |
| 2026-04-21 07:29 | -37.09322 | 174.23141 | 2797 ft | 254 kts | 92° |
| 2026-04-21 07:29 | -37.09231 | 174.25351 | 2798 ft | 251 kts | 93° |
| 2026-04-21 07:29 | -37.09141 | 174.27551 | 2798 ft | 251 kts | 93° |
| 2026-04-21 07:30 | -37.09052 | 174.29771 | 2813 ft | 260 kts | 92° |
| 2026-04-21 07:30 | -37.08960 | 174.32027 | 2810 ft | 261 kts | 91° |
| 2026-04-21 07:30 | -37.08865 | 174.34311 | 2813 ft | 261 kts | 91° |
| 2026-04-21 07:30 | -37.08769 | 174.36568 | 2809 ft | 259 kts | 91° |
| 2026-04-21 07:31 | -37.08677 | 174.38836 | 2803 ft | 260 kts | 91° |
| 2026-04-21 07:31 | -37.08583 | 174.41100 | 2804 ft | 261 kts | 90° |
| 2026-04-21 07:31 | -37.08487 | 174.43380 | 2803 ft | 261 kts | 91° |
| 2026-04-21 07:31 | -37.08390 | 174.45668 | 2809 ft | 262 kts | 90° |
| 2026-04-21 07:32 | -37.08294 | 174.47936 | 2805 ft | 263 kts | 91° |
| 2026-04-21 07:32 | -37.08199 | 174.50220 | 2807 ft | 261 kts | 91° |
| 2026-04-21 07:32 | -37.08110 | 174.52483 | 2803 ft | 260 kts | 91° |
| 2026-04-21 07:32 | -37.07823 | 174.54742 | 2778 ft | 264 kts | 78° |
| 2026-04-21 07:33 | -37.07197 | 174.56887 | 2806 ft | 267 kts | 72° |
| 2026-04-21 07:33 | -37.06556 | 174.59060 | 2791 ft | 266 kts | 73° |
| 2026-04-21 07:33 | -37.05972 | 174.61250 | 2668 ft | 264 kts | 76° |
| 2026-04-21 07:33 | -37.05416 | 174.63324 | 2322 ft | 239 kts | 75° |
| 2026-04-21 07:34 | -37.04892 | 174.65221 | 2012 ft | 226 kts | 76° |
| 2026-04-21 07:34 | -37.04381 | 174.67079 | 1718 ft | 225 kts | 75° |
| 2026-04-21 07:34 | -37.03882 | 174.68887 | 1403 ft | 204 kts | 74° |
| 2026-04-21 07:34 | -37.03457 | 174.70403 | 1142 ft | 166 kts | 74° |
| 2026-04-21 07:35 | -37.03119 | 174.71651 | 930 ft | 139 kts | 74° |
| 2026-04-21 07:35 | -37.02821 | 174.72732 | 744 ft | 127 kts | 75° |
| 2026-04-21 07:35 | -37.02535 | 174.73767 | 598 ft | 126 kts | 75° |
| 2026-04-21 07:35 | -37.02259 | 174.74784 | 442 ft | 122 kts | 76° |
| 2026-04-21 07:36 | -37.01988 | 174.75781 | 285 ft | 119 kts | 76° |
| 2026-04-21 07:36 | -37.01712 | 174.76767 | 106 ft | 121 kts | 75° |
| 2026-04-21 07:36 | -37.01455 | 174.77722 | 25 ft | 103 kts | 73° |
| 2026-04-21 07:36 | -37.01296 | 174.78259 | 24 ft | 35 kts | 59° |
| 2026-04-21 07:37 | -37.01146 | 174.78478 | 23 ft | 21 kts | 40° |
| 2026-04-21 07:37 | -37.01065 | 174.78568 | 24 ft | 13 kts | 43° |
| 2026-04-21 07:37 | -37.01015 | 174.78648 | 22 ft | 11 kts | 53° |
| 2026-04-21 07:37 | -37.00983 | 174.78731 | 22 ft | 11 kts | 71° |
| 2026-04-21 07:38 | -37.00952 | 174.78846 | 22 ft | 16 kts | 70° |
| 2026-04-21 07:38 | -37.00908 | 174.79001 | 24 ft | 21 kts | 70° |
| 2026-04-21 07:38 | -37.00854 | 174.79197 | 22 ft | 26 kts | 71° |
| 2026-04-21 07:38 | -37.00797 | 174.79402 | 22 ft | 22 kts | 71° |
| 2026-04-21 07:39 | -37.00748 | 174.79577 | 23 ft | 21 kts | 71° |
| 2026-04-21 07:39 | -37.00690 | 174.79697 | 22 ft | 14 kts | 8° |
| 2026-04-21 07:39 | -37.00655 | 174.79596 | 22 ft | 18 kts | 250° |
| 2026-04-21 07:39 | -37.00668 | 174.79450 | 23 ft | 14 kts | 318° |
| 2026-04-21 07:40 | -37.00584 | 174.79411 | 22 ft | 11 kts | 342° |
| 2026-04-21 07:40 | -37.00525 | 174.79388 | 22 ft | 4 kts | 356° |
| 2026-04-21 07:40 | -37.00513 | 174.79405 | 22 ft | 3 kts | 72° |
| 2026-04-21 07:40 | -37.00510 | 174.79416 | 22 ft | 0 kts | 71° |